createdAt,value
2017-12-21T00:02:04.941Z,7.00
2017-12-21T00:04:31.853Z,7.10
2017-12-21T00:06:58.779Z,7.10
2017-12-21T00:09:25.752Z,7.20
2017-12-21T00:11:52.677Z,7.20
2017-12-21T00:14:19.637Z,7.10
2017-12-21T00:16:46.609Z,7.10
2017-12-21T00:19:13.517Z,7.20
2017-12-21T00:21:41.216Z,7.10
2017-12-21T00:24:08.125Z,7.10
2017-12-21T00:26:35.833Z,7.10
2017-12-21T00:29:02.755Z,7.10
2017-12-21T00:31:30.084Z,7.10
2017-12-21T00:33:57.766Z,7.10
2017-12-21T00:36:24.864Z,7.00
2017-12-21T00:38:51.772Z,7.10
2017-12-21T00:41:18.706Z,7.10
2017-12-21T00:43:45.609Z,7.10
2017-12-21T00:46:12.534Z,7.10
2017-12-21T00:48:39.457Z,7.10
2017-12-21T00:51:06.384Z,7.10
2017-12-21T00:53:33.306Z,7.10
2017-12-21T00:56:01.013Z,7.10
2017-12-21T00:58:27.936Z,7.10
2017-12-21T01:00:54.869Z,7.20
2017-12-21T01:03:21.784Z,7.10
2017-12-21T01:05:48.695Z,7.10
2017-12-21T01:08:15.645Z,7.20
2017-12-21T01:10:43.465Z,7.10
2017-12-21T01:13:11.161Z,7.10
2017-12-21T01:15:39.097Z,7.10
2017-12-21T01:18:06.016Z,7.10
2017-12-21T01:20:32.929Z,7.10
2017-12-21T01:22:59.859Z,7.20
2017-12-21T01:25:26.766Z,7.20
2017-12-21T01:27:53.684Z,7.20
2017-12-21T01:30:20.600Z,7.20
2017-12-21T01:32:48.306Z,7.20
2017-12-21T01:35:15.220Z,7.20
2017-12-21T01:37:42.950Z,7.20
2017-12-21T01:40:09.855Z,7.20
2017-12-21T01:42:38.451Z,7.30
2017-12-21T01:45:06.124Z,7.20
2017-12-21T01:47:33.065Z,7.20
2017-12-21T01:49:59.992Z,7.20
2017-12-21T01:52:28.861Z,7.30
2017-12-21T01:54:55.764Z,7.20
2017-12-21T01:57:22.694Z,7.30
2017-12-21T01:59:49.613Z,7.20
2017-12-21T02:02:16.536Z,7.20
2017-12-21T02:04:44.204Z,7.30
2017-12-21T02:07:11.129Z,7.20
2017-12-21T02:09:38.804Z,7.30
2017-12-21T02:12:05.732Z,7.30
2017-12-21T02:14:38.099Z,7.30
2017-12-21T02:17:05.788Z,7.30
2017-12-21T02:19:32.692Z,7.30
2017-12-21T02:21:59.620Z,7.30
2017-12-21T02:24:26.552Z,7.30
2017-12-21T02:26:53.505Z,7.30
2017-12-21T02:29:20.413Z,7.30
2017-12-21T02:31:47.328Z,7.40
2017-12-21T02:34:15.009Z,7.40
2017-12-21T02:36:41.928Z,7.40
2017-12-21T02:39:08.837Z,7.40
2017-12-21T02:41:35.777Z,7.40
2017-12-21T02:44:02.720Z,7.40
2017-12-21T02:46:29.637Z,7.40
2017-12-21T02:48:56.596Z,7.40
2017-12-21T02:51:23.517Z,7.50
2017-12-21T02:53:50.469Z,7.50
2017-12-21T02:56:18.156Z,7.50
2017-12-21T02:58:45.089Z,7.50
2017-12-21T03:01:12.019Z,7.40
2017-12-21T03:03:39.705Z,7.50
2017-12-21T03:06:06.640Z,7.40
2017-12-21T03:08:33.548Z,7.50
2017-12-21T03:11:00.489Z,7.40
2017-12-21T03:13:27.396Z,7.50
2017-12-21T03:15:54.305Z,7.50
2017-12-21T03:18:21.997Z,7.50
2017-12-21T03:20:48.925Z,7.50
2017-12-21T03:23:15.846Z,7.50
2017-12-21T03:25:43.521Z,7.50
2017-12-21T03:28:10.476Z,7.50
2017-12-21T03:30:37.411Z,7.50
2017-12-21T03:33:04.338Z,7.50
2017-12-21T03:35:32.019Z,7.40
2017-12-21T03:37:58.946Z,7.40
2017-12-21T03:40:26.629Z,7.50
2017-12-21T03:42:53.555Z,7.50
2017-12-21T03:45:21.233Z,7.50
2017-12-21T03:47:48.163Z,7.50
2017-12-21T03:50:15.851Z,7.50
2017-12-21T03:52:42.783Z,7.50
2017-12-21T03:55:09.700Z,7.60
2017-12-21T03:57:36.637Z,7.60
2017-12-21T04:00:03.547Z,7.60
2017-12-21T04:02:30.484Z,7.50
2017-12-21T04:04:57.391Z,7.60
2017-12-21T04:07:25.080Z,7.50
2017-12-21T04:09:51.992Z,7.50
2017-12-21T04:12:19.689Z,7.50
2017-12-21T04:14:46.604Z,7.50
2017-12-21T04:17:14.301Z,7.50
2017-12-21T04:19:41.220Z,7.50
2017-12-21T04:22:08.156Z,7.50
2017-12-21T04:24:35.836Z,7.60
2017-12-21T04:27:02.773Z,7.60
2017-12-21T04:29:29.690Z,7.70
2017-12-21T04:31:56.642Z,7.60
2017-12-21T04:34:23.572Z,7.50
2017-12-21T04:36:50.500Z,7.60
2017-12-21T04:39:17.439Z,7.40
2017-12-21T04:41:44.374Z,7.40
2017-12-21T04:44:11.298Z,7.30
2017-12-21T04:46:38.224Z,7.30
2017-12-21T04:49:05.146Z,7.30
2017-12-21T04:51:32.064Z,7.30
2017-12-21T04:53:59.732Z,7.30
2017-12-21T04:56:27.416Z,7.30
2017-12-21T04:58:54.337Z,7.30
2017-12-21T05:01:22.031Z,7.20
2017-12-21T05:03:48.937Z,7.20
2017-12-21T05:06:15.881Z,7.20
2017-12-21T05:08:42.794Z,7.20
2017-12-21T05:11:09.724Z,7.20
2017-12-21T05:13:36.638Z,7.20
2017-12-21T05:16:03.578Z,7.10
2017-12-21T05:18:30.495Z,7.10
2017-12-21T05:20:58.180Z,7.00
2017-12-21T05:23:25.084Z,7.00
2017-12-21T05:25:52.018Z,7.00
2017-12-21T05:28:18.925Z,7.00
2017-12-21T05:30:45.831Z,7.10
2017-12-21T05:33:13.521Z,6.90
2017-12-21T05:35:40.456Z,6.90
2017-12-21T05:38:08.128Z,6.90
2017-12-21T05:40:35.068Z,6.90
2017-12-21T05:43:01.968Z,6.80
2017-12-21T05:45:29.815Z,6.80
2017-12-21T05:47:57.502Z,6.90
2017-12-21T05:50:24.411Z,6.90
2017-12-21T05:52:51.359Z,6.80
2017-12-21T05:55:20.048Z,6.50
2017-12-21T05:57:47.737Z,6.60
2017-12-21T06:00:14.701Z,6.60
2017-12-21T06:02:41.616Z,6.70
2017-12-21T06:05:08.537Z,6.70
2017-12-21T06:07:36.215Z,6.60
2017-12-21T06:10:03.892Z,6.70
2017-12-21T06:12:30.813Z,6.70
2017-12-21T06:14:57.725Z,6.70
2017-12-21T06:17:24.652Z,6.70
2017-12-21T06:19:51.570Z,6.60
2017-12-21T06:22:18.497Z,6.60
2017-12-21T06:24:45.434Z,6.60
2017-12-21T06:27:12.352Z,6.60
2017-12-21T06:29:39.268Z,6.60
2017-12-21T06:32:07.160Z,6.60
2017-12-21T06:34:34.860Z,6.70
2017-12-21T06:37:01.789Z,6.70
2017-12-21T06:39:28.694Z,6.80
2017-12-21T06:41:56.384Z,6.70
2017-12-21T06:44:24.056Z,6.60
2017-12-21T06:46:50.981Z,6.60
2017-12-21T06:49:17.894Z,6.70
2017-12-21T06:51:44.821Z,6.60
2017-12-21T06:54:11.731Z,6.50
2017-12-21T06:56:38.656Z,6.40
2017-12-21T06:59:06.329Z,6.30
2017-12-21T07:01:33.270Z,6.30
2017-12-21T07:04:00.183Z,6.40
2017-12-21T07:06:27.105Z,6.40
2017-12-21T07:08:54.020Z,6.40
2017-12-21T07:11:20.962Z,6.30
2017-12-21T07:13:47.875Z,6.30
2017-12-21T07:16:15.557Z,6.40
2017-12-21T07:18:42.460Z,6.40
2017-12-21T07:21:10.155Z,6.30
2017-12-21T07:23:37.052Z,6.30
2017-12-21T07:26:03.981Z,6.30
2017-12-21T07:28:30.905Z,6.30
2017-12-21T07:30:57.809Z,6.20
2017-12-21T07:33:24.733Z,6.10
2017-12-21T07:35:52.425Z,6.20
2017-12-21T07:38:19.337Z,6.30
2017-12-21T07:40:46.259Z,6.30
2017-12-21T07:43:13.187Z,6.20
2017-12-21T07:45:40.108Z,6.20
2017-12-21T07:48:07.995Z,6.20
2017-12-21T07:50:34.884Z,6.30
2017-12-21T07:53:02.644Z,6.30
2017-12-21T07:55:30.356Z,6.30
2017-12-21T07:57:57.274Z,6.30
2017-12-21T08:00:24.244Z,6.30
2017-12-21T08:02:51.127Z,6.30
2017-12-21T08:05:18.048Z,6.20
2017-12-21T08:07:44.988Z,6.30
2017-12-21T08:10:11.935Z,6.20
2017-12-21T08:12:38.865Z,6.40
2017-12-21T08:15:05.813Z,6.30
2017-12-21T08:17:32.720Z,6.30
2017-12-21T08:20:00.396Z,6.40
2017-12-21T08:22:27.339Z,6.50
2017-12-21T08:24:54.258Z,6.50
2017-12-21T08:27:21.942Z,6.50
2017-12-21T08:29:48.907Z,6.50
2017-12-21T08:32:15.815Z,6.60
2017-12-21T08:34:43.509Z,6.70
2017-12-21T08:37:10.412Z,6.70
2017-12-21T08:39:37.352Z,6.60
2017-12-21T08:42:04.256Z,6.60
2017-12-21T08:44:31.196Z,6.70
2017-12-21T08:46:58.129Z,6.80
2017-12-21T08:49:25.041Z,6.70
2017-12-21T08:51:51.950Z,6.70
2017-12-21T08:54:18.875Z,6.70
2017-12-21T08:56:50.073Z,6.70
2017-12-21T08:59:17.001Z,6.80
2017-12-21T09:01:43.913Z,6.90
2017-12-21T09:04:10.854Z,6.90
2017-12-21T09:06:37.829Z,7.00
2017-12-21T09:09:04.721Z,7.10
2017-12-21T09:11:32.417Z,7.30
2017-12-21T09:13:59.334Z,7.20
2017-12-21T09:16:26.313Z,7.30
2017-12-21T09:18:53.230Z,7.10
2017-12-21T09:21:20.156Z,7.20
2017-12-21T09:23:47.833Z,7.40
2017-12-21T09:26:14.784Z,7.40
2017-12-21T09:28:42.463Z,7.70
2017-12-21T09:31:10.421Z,7.70
2017-12-21T09:33:37.341Z,7.70
2017-12-21T09:36:04.264Z,7.70
2017-12-21T09:38:31.177Z,7.60
2017-12-21T09:41:01.733Z,7.80
2017-12-21T09:43:28.658Z,7.70
2017-12-21T09:45:55.584Z,7.60
2017-12-21T09:48:23.256Z,7.60
2017-12-21T09:50:50.205Z,7.60
2017-12-21T09:53:17.121Z,7.40
2017-12-21T09:55:46.069Z,7.30
2017-12-21T09:58:12.985Z,7.10
2017-12-21T10:00:39.925Z,7.20
2017-12-21T10:03:06.840Z,7.20
2017-12-21T10:05:33.769Z,7.30
2017-12-21T10:08:00.722Z,7.20
2017-12-21T10:10:27.661Z,7.20
2017-12-21T10:12:54.572Z,7.20
2017-12-21T10:15:21.524Z,7.10
2017-12-21T10:17:48.461Z,6.70
2017-12-21T10:20:15.389Z,6.70
2017-12-21T10:22:42.316Z,6.60
2017-12-21T10:25:09.230Z,6.80
2017-12-21T10:27:36.158Z,6.80
2017-12-21T10:30:03.073Z,7.10
2017-12-21T10:32:30.019Z,7.10
2017-12-21T10:34:56.945Z,7.20
2017-12-21T10:37:23.860Z,7.20
2017-12-21T10:39:50.763Z,7.00
2017-12-21T10:42:17.698Z,7.30
2017-12-21T10:44:44.625Z,7.10
2017-12-21T10:47:11.561Z,7.10
2017-12-21T10:49:38.467Z,7.00
2017-12-21T10:52:06.161Z,7.00
2017-12-21T10:54:33.070Z,7.00
2017-12-21T10:57:00.811Z,7.00
2017-12-21T10:59:27.717Z,6.90
2017-12-21T11:01:54.645Z,7.20
2017-12-21T11:04:21.559Z,7.30
2017-12-21T11:06:49.263Z,7.10
2017-12-21T11:09:16.168Z,7.10
2017-12-21T11:11:43.852Z,7.00
2017-12-21T11:14:11.525Z,7.20
2017-12-21T11:16:38.434Z,7.20
2017-12-21T11:19:06.122Z,7.10
2017-12-21T11:21:33.029Z,7.10
2017-12-21T11:23:59.952Z,7.00
2017-12-21T11:26:26.857Z,7.10
2017-12-21T11:28:53.784Z,6.90
2017-12-21T11:31:20.698Z,6.80
2017-12-21T11:33:47.621Z,6.90
2017-12-21T11:36:14.529Z,7.10
2017-12-21T11:38:41.450Z,7.10
2017-12-21T11:41:08.364Z,7.20
2017-12-21T11:43:36.065Z,7.20
2017-12-21T11:46:02.972Z,7.20
2017-12-21T11:48:29.892Z,7.40
2017-12-21T11:50:56.807Z,7.40
2017-12-21T11:53:23.728Z,7.30
2017-12-21T11:55:51.415Z,7.30
2017-12-21T11:58:18.338Z,7.30
2017-12-21T12:00:45.240Z,7.50
2017-12-21T12:03:12.203Z,7.80
2017-12-21T12:05:39.135Z,8.00
2017-12-21T12:08:06.057Z,7.90
2017-12-21T12:10:32.977Z,7.50
2017-12-21T12:13:01.560Z,7.20
2017-12-21T12:15:29.253Z,7.20
2017-12-21T12:17:56.160Z,7.20
2017-12-21T12:20:23.849Z,7.30
2017-12-21T12:22:51.672Z,7.20
2017-12-21T12:25:18.620Z,7.20
2017-12-21T12:27:45.526Z,7.20
2017-12-21T12:30:12.449Z,7.20
2017-12-21T12:32:39.362Z,7.10
2017-12-21T12:35:07.072Z,6.90
2017-12-21T12:37:34.722Z,6.70
2017-12-21T12:40:02.649Z,6.90
2017-12-21T12:42:29.557Z,6.80
2017-12-21T12:44:56.485Z,6.80
2017-12-21T12:47:23.401Z,6.90
2017-12-21T12:49:51.109Z,7.10
2017-12-21T12:52:18.044Z,7.10
2017-12-21T12:54:44.963Z,7.20
2017-12-21T12:57:11.869Z,6.90
2017-12-21T12:59:38.793Z,7.00
2017-12-21T13:02:05.738Z,7.00
2017-12-21T13:04:32.651Z,6.90
2017-12-21T13:06:59.545Z,6.90
2017-12-21T13:09:26.464Z,6.90
2017-12-21T13:11:53.404Z,7.00
2017-12-21T13:14:20.333Z,7.10
2017-12-21T13:16:47.237Z,7.10
2017-12-21T13:19:14.188Z,7.00
2017-12-21T13:21:41.093Z,6.70
2017-12-21T13:24:08.770Z,6.70
2017-12-21T13:26:36.453Z,6.70
2017-12-21T13:29:03.373Z,6.50
2017-12-21T13:31:31.101Z,6.80
2017-12-21T13:33:57.976Z,6.80
2017-12-21T13:36:25.654Z,6.80
2017-12-21T13:38:52.590Z,6.80
2017-12-21T13:41:19.500Z,6.80
2017-12-21T13:43:47.188Z,7.00
2017-12-21T13:46:14.095Z,7.10
2017-12-21T13:48:41.013Z,7.30
2017-12-21T13:51:09.690Z,6.90
2017-12-21T13:53:36.622Z,6.90
2017-12-21T13:56:03.539Z,6.80
2017-12-21T13:58:30.475Z,6.70
2017-12-21T14:00:57.433Z,6.70
2017-12-21T14:03:24.357Z,6.60
2017-12-21T14:05:51.277Z,6.70
2017-12-21T14:08:18.186Z,6.70
2017-12-21T14:10:45.138Z,6.70
2017-12-21T14:13:12.034Z,6.60
2017-12-21T14:15:38.957Z,6.70
2017-12-21T14:18:06.868Z,6.60
2017-12-21T14:20:33.784Z,6.60
2017-12-21T14:23:00.697Z,6.50
2017-12-21T14:25:27.623Z,6.60
2017-12-21T14:27:54.545Z,6.60
2017-12-21T14:30:21.461Z,6.60
2017-12-21T14:32:48.376Z,6.60
2017-12-21T14:35:15.294Z,6.60
2017-12-21T14:37:43.137Z,6.60
2017-12-21T14:40:10.824Z,6.50
2017-12-21T14:42:39.684Z,6.60
2017-12-21T14:45:07.373Z,6.50
2017-12-21T14:47:34.291Z,6.50
2017-12-21T14:50:01.977Z,6.50
2017-12-21T14:52:28.880Z,6.50
2017-12-21T14:54:55.799Z,6.50
2017-12-21T14:57:22.700Z,6.50
2017-12-21T14:59:49.617Z,6.60
2017-12-21T15:02:16.524Z,6.50
2017-12-21T15:04:44.351Z,6.50
2017-12-21T15:07:11.256Z,6.50
2017-12-21T15:09:38.174Z,6.50
2017-12-21T15:12:05.096Z,6.60
2017-12-21T15:14:32.034Z,6.50
2017-12-21T15:16:58.945Z,6.50
2017-12-21T15:19:25.861Z,6.60
2017-12-21T15:21:52.775Z,6.50
2017-12-21T15:24:19.698Z,6.50
2017-12-21T15:26:46.607Z,6.60
2017-12-21T15:29:13.532Z,6.60
2017-12-21T15:31:40.442Z,6.60
2017-12-21T15:34:08.160Z,6.70
2017-12-21T15:36:35.097Z,6.60
2017-12-21T15:39:02.006Z,6.60
2017-12-21T15:41:28.932Z,6.60
2017-12-21T15:43:55.853Z,6.60
2017-12-21T15:46:22.756Z,6.60
2017-12-21T15:48:50.444Z,6.60
2017-12-21T15:51:17.350Z,6.60
2017-12-21T15:53:44.270Z,6.50
2017-12-21T15:56:11.181Z,6.50
2017-12-21T15:58:38.109Z,6.50
2017-12-21T16:01:05.019Z,6.60
2017-12-21T16:03:31.938Z,6.60
2017-12-21T16:05:58.861Z,6.60
2017-12-21T16:08:25.827Z,6.70
2017-12-21T16:10:52.733Z,6.70
2017-12-21T16:13:19.648Z,6.60
2017-12-21T16:15:47.333Z,6.60
2017-12-21T16:18:14.248Z,6.60
2017-12-21T16:20:41.201Z,6.60
2017-12-21T16:23:08.087Z,6.60
2017-12-21T16:25:35.772Z,6.60
2017-12-21T16:28:03.436Z,6.60
2017-12-21T16:30:30.377Z,6.70
2017-12-21T16:32:57.280Z,6.60
2017-12-21T16:35:24.197Z,6.70
2017-12-21T16:37:57.857Z,6.70
2017-12-21T16:40:24.788Z,6.70
2017-12-21T16:42:51.738Z,6.70
2017-12-21T16:45:18.661Z,6.70
2017-12-21T16:47:45.572Z,6.70
2017-12-21T16:50:12.515Z,6.60
2017-12-21T16:52:39.461Z,6.60
2017-12-21T16:55:06.369Z,6.60
2017-12-21T16:57:33.301Z,6.60
2017-12-21T17:00:00.211Z,6.50
2017-12-21T17:02:27.119Z,6.50
2017-12-21T17:04:54.040Z,6.50
2017-12-21T17:07:20.953Z,6.60
2017-12-21T17:09:47.882Z,6.60
2017-12-21T17:12:14.788Z,6.60
2017-12-21T17:14:45.544Z,6.50
2017-12-21T17:17:13.248Z,6.40
2017-12-21T17:19:40.203Z,6.50
2017-12-21T17:22:07.896Z,6.40
2017-12-21T17:24:34.849Z,6.40
2017-12-21T17:27:02.680Z,6.40
2017-12-21T17:29:29.605Z,6.30
2017-12-21T17:31:56.515Z,6.30
2017-12-21T17:34:23.444Z,6.20
2017-12-21T17:36:50.378Z,6.20
2017-12-21T17:39:17.300Z,6.20
2017-12-21T17:41:44.218Z,6.20
2017-12-21T17:44:11.194Z,6.10
2017-12-21T17:46:38.120Z,6.00
2017-12-21T17:49:05.040Z,6.10
2017-12-21T17:51:31.951Z,6.00
2017-12-21T17:53:58.872Z,6.10
2017-12-21T17:56:25.786Z,6.10
2017-12-21T17:58:52.729Z,6.10
2017-12-21T18:01:19.637Z,6.00
2017-12-21T18:03:46.608Z,6.10
2017-12-21T18:06:13.516Z,6.00
2017-12-21T18:08:40.441Z,6.00
2017-12-21T18:11:07.356Z,6.10
2017-12-21T18:13:34.333Z,6.10
2017-12-21T18:16:01.232Z,6.00
2017-12-21T18:18:28.200Z,6.10
2017-12-21T18:20:55.129Z,6.10
2017-12-21T18:23:22.036Z,6.10
2017-12-21T18:25:48.952Z,6.10
2017-12-21T18:28:16.631Z,6.10
2017-12-21T18:30:43.586Z,6.10
2017-12-21T18:33:10.496Z,6.10
2017-12-21T18:35:37.423Z,6.20
2017-12-21T18:38:04.340Z,6.20
2017-12-21T18:40:31.285Z,6.20
2017-12-21T18:42:58.328Z,6.30
2017-12-21T18:45:25.281Z,6.30
2017-12-21T18:47:52.193Z,6.30
2017-12-21T18:50:21.818Z,6.40
2017-12-21T18:52:49.507Z,6.50
2017-12-21T18:55:16.487Z,6.40
2017-12-21T18:57:43.483Z,6.50
2017-12-21T19:00:11.156Z,6.50
2017-12-21T19:02:38.120Z,6.50
2017-12-21T19:05:05.048Z,6.50
2017-12-21T19:07:31.956Z,6.60
2017-12-21T19:09:58.901Z,6.60
2017-12-21T19:12:25.812Z,6.60
2017-12-21T19:14:53.147Z,6.60
2017-12-21T19:17:20.861Z,6.60
2017-12-21T19:19:47.801Z,6.60
2017-12-21T19:22:21.529Z,6.60
2017-12-21T19:24:48.443Z,6.60
2017-12-21T19:27:16.376Z,6.60
2017-12-21T19:29:43.308Z,6.60
2017-12-21T19:32:11.014Z,6.70
2017-12-21T19:34:37.932Z,6.60
2017-12-21T19:37:04.871Z,6.70
2017-12-21T19:39:31.797Z,6.70
2017-12-21T19:41:58.729Z,6.60
2017-12-21T19:44:26.405Z,6.60
2017-12-21T19:46:53.333Z,6.50
2017-12-21T19:49:21.929Z,6.60
2017-12-21T19:51:48.877Z,6.60
2017-12-21T19:54:15.816Z,6.50
2017-12-21T19:56:42.753Z,6.50
2017-12-21T19:59:09.670Z,6.50
2017-12-21T20:01:36.614Z,6.50
2017-12-21T20:04:03.545Z,6.50
2017-12-21T20:06:30.496Z,6.50
2017-12-21T20:08:57.408Z,6.40
2017-12-21T20:11:24.339Z,6.50
2017-12-21T20:13:51.249Z,6.40
2017-12-21T20:16:18.192Z,6.50
2017-12-21T20:18:45.096Z,6.50
2017-12-21T20:21:12.788Z,6.50
2017-12-21T20:23:40.659Z,6.50
2017-12-21T20:26:07.582Z,6.50
2017-12-21T20:28:34.496Z,6.50
2017-12-21T20:31:01.475Z,6.50
2017-12-21T20:33:29.220Z,6.60
2017-12-21T20:35:56.129Z,6.60
2017-12-21T20:38:23.972Z,6.60
2017-12-21T20:40:50.909Z,6.60
2017-12-21T20:43:17.830Z,6.60
2017-12-21T20:45:44.782Z,6.70
2017-12-21T20:48:11.696Z,6.70
2017-12-21T20:50:38.609Z,6.70
2017-12-21T20:53:06.300Z,6.70
2017-12-21T20:55:33.222Z,6.70
2017-12-21T20:58:00.165Z,6.80
2017-12-21T21:00:27.862Z,6.90
2017-12-21T21:02:54.772Z,6.90
2017-12-21T21:05:21.691Z,6.90
2017-12-21T21:07:49.405Z,6.90
2017-12-21T21:10:16.332Z,6.90
2017-12-21T21:12:43.285Z,6.90
2017-12-21T21:15:10.226Z,7.00
2017-12-21T21:17:37.157Z,7.00
2017-12-21T21:20:05.098Z,7.00
2017-12-21T21:22:32.777Z,7.00
2017-12-21T21:24:59.729Z,7.00
2017-12-21T21:27:26.648Z,7.00
2017-12-21T21:29:54.324Z,7.00
2017-12-21T21:32:22.187Z,7.00
2017-12-21T21:34:49.124Z,7.40
2017-12-21T21:37:16.792Z,7.70
2017-12-21T21:39:43.704Z,7.70
2017-12-21T21:42:10.636Z,7.40
2017-12-21T21:44:37.568Z,7.30
2017-12-21T21:47:05.254Z,7.30
2017-12-21T21:49:32.162Z,7.30
2017-12-21T21:51:59.129Z,7.20
2017-12-21T21:54:27.107Z,7.20
2017-12-21T21:56:57.293Z,7.20
2017-12-21T21:59:24.191Z,7.20
2017-12-21T22:01:54.556Z,7.20
2017-12-21T22:04:21.480Z,7.20
2017-12-21T22:06:49.173Z,7.20
2017-12-21T22:09:16.084Z,7.20
2017-12-21T22:11:43.017Z,7.30
2017-12-21T22:14:10.112Z,7.30
2017-12-21T22:16:37.020Z,7.20
2017-12-21T22:19:03.948Z,7.30
2017-12-21T22:21:30.889Z,7.20
2017-12-21T22:23:57.820Z,7.30
2017-12-21T22:26:24.775Z,7.30
2017-12-21T22:28:52.462Z,7.30
2017-12-21T22:31:19.380Z,7.30
2017-12-21T22:33:46.293Z,7.30
2017-12-21T22:36:13.225Z,7.20
2017-12-21T22:38:40.157Z,7.30
2017-12-21T22:41:07.108Z,7.30
2017-12-21T22:43:34.781Z,7.30
2017-12-21T22:46:01.705Z,7.30
2017-12-21T22:48:28.634Z,7.30
2017-12-21T22:50:56.447Z,7.30
2017-12-21T22:53:25.129Z,7.30
2017-12-21T22:55:52.037Z,7.30
2017-12-21T22:58:18.925Z,7.40
2017-12-21T23:00:47.500Z,7.40
2017-12-21T23:03:14.395Z,7.30
2017-12-21T23:05:41.299Z,7.40
2017-12-21T23:08:12.701Z,7.20
2017-12-21T23:10:39.625Z,7.30
2017-12-21T23:13:06.509Z,7.20
2017-12-21T23:15:33.421Z,7.20
2017-12-21T23:18:00.321Z,7.30
2017-12-21T23:20:29.010Z,7.30
2017-12-21T23:22:56.670Z,7.30
2017-12-21T23:25:24.365Z,7.30
2017-12-21T23:27:55.896Z,7.20
2017-12-21T23:30:23.491Z,7.30
2017-12-21T23:32:51.196Z,7.30
2017-12-21T23:35:18.153Z,7.20
2017-12-21T23:37:45.101Z,7.10
2017-12-21T23:40:12.040Z,7.20
2017-12-21T23:42:38.966Z,7.20
2017-12-21T23:45:05.916Z,7.10
2017-12-21T23:47:33.616Z,7.20
2017-12-21T23:50:01.349Z,7.20
2017-12-21T23:52:28.286Z,7.20
2017-12-21T23:54:55.217Z,7.10
2017-12-21T23:57:22.153Z,7.20
2017-12-21T23:59:49.085Z,7.20
